sensor_id;sensor_type;location;lat;lon;timestamp;pressure;altitude;pressure_sealevel;temperature;humidity
75157;BME280;63736;50.076;8.198;2023-02-28T00:01:20;100623.88;;;-0.33;70.36
75157;BME280;63736;50.076;8.198;2023-02-28T00:03:45;100617.81;;;-0.35;71.38
75157;BME280;63736;50.076;8.198;2023-02-28T00:06:11;100622.13;;;-0.32;71.47
75157;BME280;63736;50.076;8.198;2023-02-28T00:08:37;100620.34;;;-0.32;71.12
75157;BME280;63736;50.076;8.198;2023-02-28T00:11:05;100616.88;;;-0.32;71.16
75157;BME280;63736;50.076;8.198;2023-02-28T00:13:37;100624.75;;;-0.32;71.45
75157;BME280;63736;50.076;8.198;2023-02-28T00:16:07;100619.50;;;-0.32;72.08
75157;BME280;63736;50.076;8.198;2023-02-28T00:18:33;100618.69;;;-0.36;71.03
75157;BME280;63736;50.076;8.198;2023-02-28T00:20:59;100614.28;;;-0.36;72.12
75157;BME280;63736;50.076;8.198;2023-02-28T00:23:25;100616.97;;;-0.37;71.76
75157;BME280;63736;50.076;8.198;2023-02-28T00:25:51;100617.84;;;-0.38;73.05
75157;BME280;63736;50.076;8.198;2023-02-28T00:28:16;100609.13;;;-0.39;73.23
75157;BME280;63736;50.076;8.198;2023-02-28T00:30:42;100617.94;;;-0.41;73.45
75157;BME280;63736;50.076;8.198;2023-02-28T00:33:07;100613.59;;;-0.44;74.36
75157;BME280;63736;50.076;8.198;2023-02-28T00:35:32;100610.09;;;-0.44;73.88
75157;BME280;63736;50.076;8.198;2023-02-28T00:37:57;100616.31;;;-0.48;74.88
75157;BME280;63736;50.076;8.198;2023-02-28T00:40:23;100616.34;;;-0.50;74.54
75157;BME280;63736;50.076;8.198;2023-02-28T00:42:48;100614.69;;;-0.54;74.68
75157;BME280;63736;50.076;8.198;2023-02-28T00:45:13;100619.13;;;-0.58;75.45
75157;BME280;63736;50.076;8.198;2023-02-28T00:47:39;100615.69;;;-0.61;75.48
75157;BME280;63736;50.076;8.198;2023-02-28T00:50:05;100609.72;;;-0.68;76.87
75157;BME280;63736;50.076;8.198;2023-02-28T00:52:30;100618.63;;;-0.75;76.64
75157;BME280;63736;50.076;8.198;2023-02-28T00:54:55;100621.34;;;-0.81;77.05
75157;BME280;63736;50.076;8.198;2023-02-28T00:57:21;100609.19;;;-0.86;77.59
75157;BME280;63736;50.076;8.198;2023-02-28T00:59:46;100611.81;;;-0.87;78.45
75157;BME280;63736;50.076;8.198;2023-02-28T01:02:12;100611.03;;;-0.91;78.66
75157;BME280;63736;50.076;8.198;2023-02-28T01:04:37;100614.63;;;-0.96;79.21
75157;BME280;63736;50.076;8.198;2023-02-28T01:07:02;100611.25;;;-1.03;79.96
75157;BME280;63736;50.076;8.198;2023-02-28T01:09:27;100609.63;;;-1.09;81.32
75157;BME280;63736;50.076;8.198;2023-02-28T01:11:53;100610.53;;;-1.11;80.81
75157;BME280;63736;50.076;8.198;2023-02-28T01:14:18;100614.09;;;-1.14;80.84
75157;BME280;63736;50.076;8.198;2023-02-28T01:16:43;100612.41;;;-1.18;81.94
75157;BME280;63736;50.076;8.198;2023-02-28T01:19:08;100613.25;;;-1.16;82.46
75157;BME280;63736;50.076;8.198;2023-02-28T01:21:34;100608.03;;;-1.18;82.72
75157;BME280;63736;50.076;8.198;2023-02-28T01:24:00;100609.75;;;-1.17;82.63
75157;BME280;63736;50.076;8.198;2023-02-28T01:26:25;100606.34;;;-1.22;81.69
75157;BME280;63736;50.076;8.198;2023-02-28T01:28:52;100609.97;;;-1.27;82.53
75157;BME280;63736;50.076;8.198;2023-02-28T01:31:18;100607.34;;;-1.27;82.97
75157;BME280;63736;50.076;8.198;2023-02-28T01:33:44;100601.28;;;-1.31;83.38
75157;BME280;63736;50.076;8.198;2023-02-28T01:36:15;100603.94;;;-1.33;84.37
75157;BME280;63736;50.076;8.198;2023-02-28T01:38:40;100603.09;;;-1.35;84.59
75157;BME280;63736;50.076;8.198;2023-02-28T01:41:07;100604.84;;;-1.35;85.56
75157;BME280;63736;50.076;8.198;2023-02-28T01:43:54;100601.19;;;-1.26;86.62
75157;BME280;63736;50.076;8.198;2023-02-28T01:46:20;100601.19;;;-1.25;86.22
75157;BME280;63736;50.076;8.198;2023-02-28T01:48:58;100598.59;;;-1.28;85.38
75157;BME280;63736;50.076;8.198;2023-02-28T01:51:33;100589.97;;;-1.35;85.26
75157;BME280;63736;50.076;8.198;2023-02-28T01:54:05;100601.44;;;-1.42;85.27
75157;BME280;63736;50.076;8.198;2023-02-28T01:56:38;100595.41;;;-1.45;85.63
75157;BME280;63736;50.076;8.198;2023-02-28T01:59:05;100588.47;;;-1.48;85.59
75157;BME280;63736;50.076;8.198;2023-02-28T02:01:30;100595.56;;;-1.53;85.87
75157;BME280;63736;50.076;8.198;2023-02-28T02:03:58;100586.03;;;-1.59;86.68
75157;BME280;63736;50.076;8.198;2023-02-28T02:06:44;100587.84;;;-1.64;87.68
75157;BME280;63736;50.076;8.198;2023-02-28T02:09:11;100597.53;;;-1.68;88.49
75157;BME280;63736;50.076;8.198;2023-02-28T02:11:37;100584.47;;;-1.71;88.93
75157;BME280;63736;50.076;8.198;2023-02-28T02:14:30;100586.34;;;-1.77;89.57
75157;BME280;63736;50.076;8.198;2023-02-28T02:17:19;100585.53;;;-1.83;89.77
75157;BME280;63736;50.076;8.198;2023-02-28T02:19:53;100577.81;;;-1.90;89.62
75157;BME280;63736;50.076;8.198;2023-02-28T02:22:35;100577.91;;;-1.98;90.06
75157;BME280;63736;50.076;8.198;2023-02-28T02:25:32;100579.72;;;-2.00;92.44
75157;BME280;63736;50.076;8.198;2023-02-28T02:33:36;100580.41;;;-1.90;92.47
75157;BME280;63736;50.076;8.198;2023-02-28T02:36:13;100574.31;;;-1.91;91.86
75157;BME280;63736;50.076;8.198;2023-02-28T02:38:53;100578.75;;;-1.94;91.56
75157;BME280;63736;50.076;8.198;2023-02-28T02:41:30;100577.81;;;-1.90;92.17
75157;BME280;63736;50.076;8.198;2023-02-28T02:44:11;100574.31;;;-1.91;91.80
75157;BME280;63736;50.076;8.198;2023-02-28T02:46:41;100572.66;;;-1.95;90.55
75157;BME280;63736;50.076;8.198;2023-02-28T02:49:13;100576.22;;;-2.01;91.44
75157;BME280;63736;50.076;8.198;2023-02-28T02:51:41;100580.63;;;-2.03;91.98
75157;BME280;63736;50.076;8.198;2023-02-28T02:54:11;100579.75;;;-2.03;92.37
75157;BME280;63736;50.076;8.198;2023-02-28T02:56:42;100582.34;;;-2.00;92.66
75157;BME280;63736;50.076;8.198;2023-02-28T02:59:11;100578.78;;;-1.99;91.82
75157;BME280;63736;50.076;8.198;2023-02-28T03:01:39;100580.59;;;-2.01;91.86
75157;BME280;63736;50.076;8.198;2023-02-28T03:04:09;100578.09;;;-2.09;91.42
75157;BME280;63736;50.076;8.198;2023-02-28T03:06:35;100586.06;;;-2.17;90.92
75157;BME280;63736;50.076;8.198;2023-02-28T03:09:01;100580.03;;;-2.23;91.33
75157;BME280;63736;50.076;8.198;2023-02-28T03:11:27;100589.66;;;-2.25;91.79
75157;BME280;63736;50.076;8.198;2023-02-28T03:22:45;100589.66;;;-2.25;95.15
75157;BME280;63736;50.076;8.198;2023-02-28T03:28:26;100579.94;;;-2.16;93.02
75157;BME280;63736;50.076;8.198;2023-02-28T03:30:59;100577.44;;;-2.23;93.48
75157;BME280;63736;50.076;8.198;2023-02-28T03:33:34;100581.81;;;-2.25;94.40
75157;BME280;63736;50.076;8.198;2023-02-28T03:36:21;100578.28;;;-2.23;93.00
75157;BME280;63736;50.076;8.198;2023-02-28T03:38:53;100580.09;;;-2.28;93.07
75157;BME280;63736;50.076;8.198;2023-02-28T03:41:23;100578.41;;;-2.32;93.11
75157;BME280;63736;50.076;8.198;2023-02-28T03:44:01;100580.28;;;-2.40;92.33
75157;BME280;63736;50.076;8.198;2023-02-28T03:46:31;100576.81;;;-2.42;92.74
75157;BME280;63736;50.076;8.198;2023-02-28T03:49:08;100582.88;;;-2.39;93.35
75157;BME280;63736;50.076;8.198;2023-02-28T03:51:38;100576.78;;;-2.39;92.76
75157;BME280;63736;50.076;8.198;2023-02-28T03:57:10;100582.00;;;-2.38;92.70
75157;BME280;63736;50.076;8.198;2023-02-28T03:59:42;100586.28;;;-2.34;93.46
75157;BME280;63736;50.076;8.198;2023-02-28T04:02:09;100579.28;;;-2.33;93.76
75157;BME280;63736;50.076;8.198;2023-02-28T04:04:34;100581.88;;;-2.32;92.91
75157;BME280;63736;50.076;8.198;2023-02-28T04:07:02;100581.03;;;-2.32;92.45
75157;BME280;63736;50.076;8.198;2023-02-28T04:09:28;100587.13;;;-2.30;93.09
75157;BME280;63736;50.076;8.198;2023-02-28T04:11:53;100589.75;;;-2.30;91.69
75157;BME280;63736;50.076;8.198;2023-02-28T04:14:20;100589.75;;;-2.30;91.45
75157;BME280;63736;50.076;8.198;2023-02-28T04:16:46;100585.38;;;-2.31;91.43
75157;BME280;63736;50.076;8.198;2023-02-28T04:19:12;100587.09;;;-2.28;90.96
75157;BME280;63736;50.076;8.198;2023-02-28T04:21:42;100580.97;;;-2.27;90.94
75157;BME280;63736;50.076;8.198;2023-02-28T04:24:10;100581.84;;;-2.27;90.27
75157;BME280;63736;50.076;8.198;2023-02-28T04:26:40;100589.59;;;-2.19;90.15
75157;BME280;63736;50.076;8.198;2023-02-28T04:29:06;100581.69;;;-2.18;89.55
75157;BME280;63736;50.076;8.198;2023-02-28T04:31:32;100575.59;;;-2.17;89.24
75157;BME280;63736;50.076;8.198;2023-02-28T04:33:58;100570.31;;;-2.15;88.24
75157;BME280;63736;50.076;8.198;2023-02-28T04:36:24;100577.31;;;-2.16;87.55
75157;BME280;63736;50.076;8.198;2023-02-28T04:38:50;100575.53;;;-2.12;87.06
75157;BME280;63736;50.076;8.198;2023-02-28T04:41:16;100576.44;;;-2.14;87.24
75157;BME280;63736;50.076;8.198;2023-02-28T04:43:41;100565.97;;;-2.14;87.01
75157;BME280;63736;50.076;8.198;2023-02-28T04:46:07;100575.53;;;-2.13;86.49
75157;BME280;63736;50.076;8.198;2023-02-28T04:48:35;100576.50;;;-2.19;86.17
75157;BME280;63736;50.076;8.198;2023-02-28T04:51:05;100580.94;;;-2.24;86.78
75157;BME280;63736;50.076;8.198;2023-02-28T04:53:31;100576.53;;;-2.24;87.52
75157;BME280;63736;50.076;8.198;2023-02-28T04:55:57;100575.75;;;-2.29;87.15
75157;BME280;63736;50.076;8.198;2023-02-28T04:58:23;100587.16;;;-2.33;88.48
75157;BME280;63736;50.076;8.198;2023-02-28T05:00:49;100581.03;;;-2.32;88.02
75157;BME280;63736;50.076;8.198;2023-02-28T05:03:14;100578.34;;;-2.29;88.00
75157;BME280;63736;50.076;8.198;2023-02-28T05:05:40;100583.69;;;-2.34;87.91
75157;BME280;63736;50.076;8.198;2023-02-28T05:08:05;100582.81;;;-2.36;87.60
75157;BME280;63736;50.076;8.198;2023-02-28T05:10:31;100583.69;;;-2.35;88.53
75157;BME280;63736;50.076;8.198;2023-02-28T05:12:56;100586.31;;;-2.35;87.40
75157;BME280;63736;50.076;8.198;2023-02-28T05:15:22;100590.75;;;-2.40;87.40
75157;BME280;63736;50.076;8.198;2023-02-28T05:17:47;100598.69;;;-2.48;89.30
75157;BME280;63736;50.076;8.198;2023-02-28T05:20:12;100590.81;;;-2.46;91.21
75157;BME280;63736;50.076;8.198;2023-02-28T05:22:41;100595.09;;;-2.41;90.66
75157;BME280;63736;50.076;8.198;2023-02-28T05:25:08;100595.94;;;-2.39;90.95
75157;BME280;63736;50.076;8.198;2023-02-28T05:27:34;100597.69;;;-2.38;90.44
75157;BME280;63736;50.076;8.198;2023-02-28T05:30:00;100596.81;;;-2.37;90.89
75157;BME280;63736;50.076;8.198;2023-02-28T05:32:28;100602.03;;;-2.35;91.03
75157;BME280;63736;50.076;8.198;2023-02-28T05:34:53;100591.47;;;-2.30;90.06
75157;BME280;63736;50.076;8.198;2023-02-28T05:37:18;100590.53;;;-2.25;89.23
75157;BME280;63736;50.076;8.198;2023-02-28T05:39:44;100595.72;;;-2.22;88.87
75157;BME280;63736;50.076;8.198;2023-02-28T05:42:09;100594.88;;;-2.22;88.54
75157;BME280;63736;50.076;8.198;2023-02-28T05:44:35;100595.72;;;-2.22;88.88
75157;BME280;63736;50.076;8.198;2023-02-28T05:47:00;100594.88;;;-2.22;90.40
75157;BME280;63736;50.076;8.198;2023-02-28T05:49:26;100593.94;;;-2.18;90.49
75157;BME280;63736;50.076;8.198;2023-02-28T05:51:51;100591.22;;;-2.10;90.27
75157;BME280;63736;50.076;8.198;2023-02-28T05:54:16;100593.69;;;-2.01;89.67
75157;BME280;63736;50.076;8.198;2023-02-28T05:56:41;100595.28;;;-1.91;89.54
75157;BME280;63736;50.076;8.198;2023-02-28T05:59:09;100597.78;;;-1.83;88.58
75157;BME280;63736;50.076;8.198;2023-02-28T06:01:37;100599.38;;;-1.74;87.25
75157;BME280;63736;50.076;8.198;2023-02-28T06:04:06;100587.91;;;-1.67;85.69
75157;BME280;63736;50.076;8.198;2023-02-28T06:06:32;100596.53;;;-1.60;86.26
75157;BME280;63736;50.076;8.198;2023-02-28T06:08:59;100600.88;;;-1.59;86.21
75157;BME280;63736;50.076;8.198;2023-02-28T06:11:25;100606.06;;;-1.55;85.58
75157;BME280;63736;50.076;8.198;2023-02-28T06:13:55;100606.84;;;-1.50;84.01
75157;BME280;63736;50.076;8.198;2023-02-28T06:16:21;100598.13;;;-1.52;83.02
75157;BME280;63736;50.076;8.198;2023-02-28T06:18:47;100592.06;;;-1.55;82.91
75157;BME280;63736;50.076;8.198;2023-02-28T06:21:12;100613.94;;;-1.55;84.40
75157;BME280;63736;50.076;8.198;2023-02-28T06:23:38;100610.38;;;-1.52;82.75
75157;BME280;63736;50.076;8.198;2023-02-28T06:26:03;100607.78;;;-1.52;82.68
75157;BME280;63736;50.076;8.198;2023-02-28T06:28:29;100606.00;;;-1.52;82.09
75157;BME280;63736;50.076;8.198;2023-02-28T06:30:54;100613.78;;;-1.48;82.49
75157;BME280;63736;50.076;8.198;2023-02-28T06:33:20;100612.91;;;-1.47;82.37
75157;BME280;63736;50.076;8.198;2023-02-28T06:35:46;100612.84;;;-1.44;81.35
75157;BME280;63736;50.076;8.198;2023-02-28T06:38:11;100610.16;;;-1.40;79.70
75157;BME280;63736;50.076;8.198;2023-02-28T06:40:36;100614.44;;;-1.34;78.64
75157;BME280;63736;50.076;8.198;2023-02-28T06:43:02;100617.91;;;-1.32;77.68
75157;BME280;63736;50.076;8.198;2023-02-28T06:45:27;100619.53;;;-1.25;76.38
75157;BME280;63736;50.076;8.198;2023-02-28T06:47:52;100615.03;;;-1.18;76.27
75157;BME280;63736;50.076;8.198;2023-02-28T06:50:18;100622.78;;;-1.10;75.92
75157;BME280;63736;50.076;8.198;2023-02-28T06:52:44;100623.44;;;-1.01;74.89
75157;BME280;63736;50.076;8.198;2023-02-28T06:55:10;100622.38;;;-0.90;74.99
75157;BME280;63736;50.076;8.198;2023-02-28T06:57:36;100617.88;;;-0.84;73.65
75157;BME280;63736;50.076;8.198;2023-02-28T07:00:07;100622.94;;;-0.73;73.36
75157;BME280;63736;50.076;8.198;2023-02-28T07:02:36;100614.25;;;0.44;70.27
75157;BME280;63736;50.076;8.198;2023-02-28T07:05:03;100616.25;;;2.23;61.06
75157;BME280;63736;50.076;8.198;2023-02-28T07:07:29;100608.69;;;3.89;54.28
75157;BME280;63736;50.076;8.198;2023-02-28T07:09:54;100610.28;;;5.22;48.97
75157;BME280;63736;50.076;8.198;2023-02-28T07:12:19;100596.81;;;6.41;46.91
75157;BME280;63736;50.076;8.198;2023-02-28T07:14:45;100599.69;;;7.41;43.08
75157;BME280;63736;50.076;8.198;2023-02-28T07:17:10;100600.84;;;8.17;39.62
75157;BME280;63736;50.076;8.198;2023-02-28T07:19:38;100601.66;;;8.66;37.84
75157;BME280;63736;50.076;8.198;2023-02-28T07:22:04;100608.94;;;8.78;36.66
75157;BME280;63736;50.076;8.198;2023-02-28T07:24:29;100613.81;;;8.86;35.26
75157;BME280;63736;50.076;8.198;2023-02-28T07:26:55;100610.63;;;9.24;34.24
75157;BME280;63736;50.076;8.198;2023-02-28T07:29:20;100614.72;;;9.44;33.73
75157;BME280;63736;50.076;8.198;2023-02-28T07:31:45;100604.22;;;9.84;33.15
75157;BME280;63736;50.076;8.198;2023-02-28T07:34:11;100601.41;;;10.15;31.59
75157;BME280;63736;50.076;8.198;2023-02-28T07:36:36;100600.91;;;9.81;31.47
75157;BME280;63736;50.076;8.198;2023-02-28T07:39:02;100600.72;;;9.69;31.40
75157;BME280;63736;50.076;8.198;2023-02-28T07:41:27;100601.03;;;10.06;31.41
75157;BME280;63736;50.076;8.198;2023-02-28T07:43:54;100605.63;;;10.86;30.81
75157;BME280;63736;50.076;8.198;2023-02-28T07:46:22;100608.31;;;10.46;29.59
75157;BME280;63736;50.076;8.198;2023-02-28T07:48:47;100602.53;;;10.93;29.26
75157;BME280;63736;50.076;8.198;2023-02-28T07:51:12;100599.00;;;11.05;28.89
75157;BME280;63736;50.076;8.198;2023-02-28T07:53:38;100598.59;;;11.11;28.77
75157;BME280;63736;50.076;8.198;2023-02-28T07:56:03;100609.84;;;11.42;28.79
75157;BME280;63736;50.076;8.198;2023-02-28T07:58:28;100608.31;;;11.51;27.20
75157;BME280;63736;50.076;8.198;2023-02-28T08:00:55;100603.59;;;11.67;28.87
75157;BME280;63736;50.076;8.198;2023-02-28T08:03:21;100602.22;;;12.12;27.89
75157;BME280;63736;50.076;8.198;2023-02-28T08:05:46;100609.19;;;12.14;26.44
75157;BME280;63736;50.076;8.198;2023-02-28T08:08:12;100606.66;;;11.87;26.21
75157;BME280;63736;50.076;8.198;2023-02-28T08:10:37;100627.09;;;12.14;26.37
75157;BME280;63736;50.076;8.198;2023-02-28T08:13:03;100621.47;;;11.80;26.61
75157;BME280;63736;50.076;8.198;2023-02-28T08:15:28;100620.53;;;11.29;26.82
75157;BME280;63736;50.076;8.198;2023-02-28T08:17:53;100619.66;;;11.54;26.72
75157;BME280;63736;50.076;8.198;2023-02-28T08:20:18;100617.22;;;11.51;26.50
75157;BME280;63736;50.076;8.198;2023-02-28T08:22:44;100626.63;;;11.44;27.02
75157;BME280;63736;50.076;8.198;2023-02-28T08:25:09;100623.75;;;11.60;27.23
75157;BME280;63736;50.076;8.198;2023-02-28T08:27:34;100618.69;;;11.68;26.54
75157;BME280;63736;50.076;8.198;2023-02-28T08:30:00;100640.63;;;11.22;27.33
75157;BME280;63736;50.076;8.198;2023-02-28T08:32:25;100629.31;;;11.05;27.65
75157;BME280;63736;50.076;8.198;2023-02-28T08:34:50;100644.94;;;9.73;28.25
75157;BME280;63736;50.076;8.198;2023-02-28T08:37:16;100635.38;;;8.51;30.14
75157;BME280;63736;50.076;8.198;2023-02-28T08:39:41;100644.91;;;7.57;31.73
75157;BME280;63736;50.076;8.198;2023-02-28T08:42:07;100651.94;;;6.90;32.78
75157;BME280;63736;50.076;8.198;2023-02-28T08:44:32;100636.44;;;6.63;33.60
75157;BME280;63736;50.076;8.198;2023-02-28T08:46:57;100638.81;;;6.14;34.58
75157;BME280;63736;50.076;8.198;2023-02-28T08:49:23;100643.13;;;6.16;34.72
75157;BME280;63736;50.076;8.198;2023-02-28T08:51:48;100644.97;;;6.70;34.36
75157;BME280;63736;50.076;8.198;2023-02-28T08:54:13;100638.28;;;7.49;33.75
75157;BME280;63736;50.076;8.198;2023-02-28T08:56:41;100638.44;;;7.95;32.54
75157;BME280;63736;50.076;8.198;2023-02-28T08:59:08;100626.06;;;9.48;30.78
75157;BME280;63736;50.076;8.198;2023-02-28T09:01:34;100628.59;;;10.07;29.86
75157;BME280;63736;50.076;8.198;2023-02-28T09:04:01;100629.69;;;9.32;30.30
75157;BME280;63736;50.076;8.198;2023-02-28T09:06:27;100654.56;;;9.02;30.37
75157;BME280;63736;50.076;8.198;2023-02-28T09:08:56;100637.78;;;9.45;30.31
75157;BME280;63736;50.076;8.198;2023-02-28T09:11:23;100633.78;;;9.81;30.75
75157;BME280;63736;50.076;8.198;2023-02-28T09:13:49;100631.50;;;10.46;29.38
75157;BME280;63736;50.076;8.198;2023-02-28T09:16:15;100628.72;;;10.87;28.24
75157;BME280;63736;50.076;8.198;2023-02-28T09:18:41;100633.81;;;10.78;28.81
75157;BME280;63736;50.076;8.198;2023-02-28T09:21:11;100629.97;;;10.82;28.30
75157;BME280;63736;50.076;8.198;2023-02-28T09:23:39;100621.78;;;10.85;28.85
75157;BME280;63736;50.076;8.198;2023-02-28T09:26:05;100623.22;;;11.29;28.76
75157;BME280;63736;50.076;8.198;2023-02-28T09:28:31;100622.56;;;11.13;28.71
75157;BME280;63736;50.076;8.198;2023-02-28T09:30:56;100635.28;;;10.69;28.32
75157;BME280;63736;50.076;8.198;2023-02-28T09:33:25;100644.94;;;9.88;29.75
75157;BME280;63736;50.076;8.198;2023-02-28T09:35:58;100656.03;;;9.08;31.08
75157;BME280;63736;50.076;8.198;2023-02-28T09:38:24;100632.84;;;8.94;30.87
75157;BME280;63736;50.076;8.198;2023-02-28T09:40:54;100635.78;;;8.89;31.16
75157;BME280;63736;50.076;8.198;2023-02-28T09:43:23;100624.00;;;8.63;31.88
75157;BME280;63736;50.076;8.198;2023-02-28T09:46:11;100634.78;;;8.46;31.72
75157;BME280;63736;50.076;8.198;2023-02-28T09:48:41;100632.84;;;8.32;31.53
75157;BME280;63736;50.076;8.198;2023-02-28T09:51:37;100632.75;;;7.69;32.18
75157;BME280;63736;50.076;8.198;2023-02-28T09:54:05;100648.00;;;7.32;32.92
75157;BME280;63736;50.076;8.198;2023-02-28T09:56:38;100638.56;;;7.09;33.77
75157;BME280;63736;50.076;8.198;2023-02-28T09:59:20;100654.53;;;6.55;34.24
75157;BME280;63736;50.076;8.198;2023-02-28T10:02:01;100654.88;;;6.30;35.02
75157;BME280;63736;50.076;8.198;2023-02-28T10:10:21;100643.38;;;5.72;36.43
75157;BME280;63736;50.076;8.198;2023-02-28T10:12:48;100654.31;;;5.45;36.16
75157;BME280;63736;50.076;8.198;2023-02-28T10:15:17;100647.97;;;5.08;37.05
75157;BME280;63736;50.076;8.198;2023-02-28T10:17:45;100652.81;;;4.98;37.79
75157;BME280;63736;50.076;8.198;2023-02-28T10:20:19;100657.72;;;5.07;37.52
75157;BME280;63736;50.076;8.198;2023-02-28T10:25:23;100652.75;;;5.00;37.69
75157;BME280;63736;50.076;8.198;2023-02-28T10:27:50;100653.78;;;4.75;38.06
75157;BME280;63736;50.076;8.198;2023-02-28T10:30:18;100656.44;;;4.53;38.02
75157;BME280;63736;50.076;8.198;2023-02-28T10:32:49;100652.47;;;4.41;38.63
75157;BME280;63736;50.076;8.198;2023-02-28T10:35:20;100665.47;;;4.25;38.96
75157;BME280;63736;50.076;8.198;2023-02-28T10:37:48;100659.63;;;4.17;39.29
75157;BME280;63736;50.076;8.198;2023-02-28T10:42:42;100644.19;;;4.28;39.35
75157;BME280;63736;50.076;8.198;2023-02-28T10:45:19;100653.06;;;4.49;39.29
75157;BME280;63736;50.076;8.198;2023-02-28T10:47:55;100645.34;;;4.65;39.04
75157;BME280;63736;50.076;8.198;2023-02-28T10:50:42;100651.16;;;4.53;38.45
75157;BME280;63736;50.076;8.198;2023-02-28T10:56:04;100641.66;;;4.25;39.21
75157;BME280;63736;50.076;8.198;2023-02-28T11:01:39;100668.00;;;4.28;39.45
75157;BME280;63736;50.076;8.198;2023-02-28T11:07:19;100637.50;;;4.41;38.99
75157;BME280;63736;50.076;8.198;2023-02-28T11:09:47;100636.41;;;4.68;39.14
75157;BME280;63736;50.076;8.198;2023-02-28T11:12:36;100625.72;;;4.91;38.85
75157;BME280;63736;50.076;8.198;2023-02-28T11:15:14;100633.91;;;5.06;37.81
75157;BME280;63736;50.076;8.198;2023-02-28T11:17:43;100643.56;;;4.86;37.99
75157;BME280;63736;50.076;8.198;2023-02-28T11:20:20;100624.97;;;4.67;38.42
75157;BME280;63736;50.076;8.198;2023-02-28T11:22:47;100637.03;;;4.52;38.72
75157;BME280;63736;50.076;8.198;2023-02-28T11:25:20;100628.88;;;4.36;38.77
75157;BME280;63736;50.076;8.198;2023-02-28T11:27:50;100626.03;;;4.19;39.55
75157;BME280;63736;50.076;8.198;2023-02-28T11:30:29;100630.69;;;4.12;39.77
75157;BME280;63736;50.076;8.198;2023-02-28T11:32:55;100630.03;;;4.07;40.00
75157;BME280;63736;50.076;8.198;2023-02-28T11:35:28;100607.88;;;4.09;39.57
75157;BME280;63736;50.076;8.198;2023-02-28T11:37:55;100611.09;;;4.18;39.43
75157;BME280;63736;50.076;8.198;2023-02-28T11:41:11;100610.44;;;4.12;39.91
75157;BME280;63736;50.076;8.198;2023-02-28T11:43:53;100608.50;;;4.16;39.53
75157;BME280;63736;50.076;8.198;2023-02-28T11:46:38;100611.16;;;4.16;40.09
75157;BME280;63736;50.076;8.198;2023-02-28T11:49:25;100609.06;;;4.24;40.17
75157;BME280;63736;50.076;8.198;2023-02-28T11:52:01;100608.25;;;4.22;39.55
75157;BME280;63736;50.076;8.198;2023-02-28T11:55:11;100608.34;;;4.21;39.77
75157;BME280;63736;50.076;8.198;2023-02-28T12:05:33;100593.81;;;4.94;38.34
75157;BME280;63736;50.076;8.198;2023-02-28T12:08:21;100604.84;;;4.84;38.42
75157;BME280;63736;50.076;8.198;2023-02-28T12:11:27;100617.03;;;4.67;38.87
75157;BME280;63736;50.076;8.198;2023-02-28T12:25:13;100590.97;;;4.58;38.87
75157;BME280;63736;50.076;8.198;2023-02-28T12:27:46;100575.41;;;4.71;39.24
75157;BME280;63736;50.076;8.198;2023-02-28T12:30:22;100597.19;;;4.77;38.37
75157;BME280;63736;50.076;8.198;2023-02-28T12:32:55;100591.25;;;4.72;38.21
75157;BME280;63736;50.076;8.198;2023-02-28T12:35:26;100585.97;;;4.71;38.87
75157;BME280;63736;50.076;8.198;2023-02-28T12:38:01;100585.88;;;4.74;38.77
75157;BME280;63736;50.076;8.198;2023-02-28T12:40:33;100584.00;;;4.76;38.37
75157;BME280;63736;50.076;8.198;2023-02-28T12:43:07;100582.00;;;4.81;38.73
75157;BME280;63736;50.076;8.198;2023-02-28T12:45:42;100563.81;;;4.73;38.23
75157;BME280;63736;50.076;8.198;2023-02-28T12:48:14;100592.34;;;4.67;38.80
75157;BME280;63736;50.076;8.198;2023-02-28T12:50:41;100587.38;;;4.59;38.80
75157;BME280;63736;50.076;8.198;2023-02-28T12:53:17;100576.78;;;4.59;38.52
75157;BME280;63736;50.076;8.198;2023-02-28T12:58:34;100572.97;;;4.66;39.01
75157;BME280;63736;50.076;8.198;2023-02-28T13:03:56;100580.25;;;4.82;38.80
75157;BME280;63736;50.076;8.198;2023-02-28T13:09:22;100578.19;;;4.88;38.91
75157;BME280;63736;50.076;8.198;2023-02-28T13:11:52;100584.47;;;4.86;38.69
75157;BME280;63736;50.076;8.198;2023-02-28T13:14:29;100577.34;;;4.88;38.48
75157;BME280;63736;50.076;8.198;2023-02-28T13:19:33;100575.81;;;5.03;38.71
75157;BME280;63736;50.076;8.198;2023-02-28T13:22:00;100579.44;;;5.00;38.19
75157;BME280;63736;50.076;8.198;2023-02-28T13:27:34;100574.56;;;4.91;38.19
75157;BME280;63736;50.076;8.198;2023-02-28T13:30:01;100576.53;;;4.86;38.70
75157;BME280;63736;50.076;8.198;2023-02-28T13:33:17;100570.44;;;4.84;38.33
75157;BME280;63736;50.076;8.198;2023-02-28T13:35:46;100568.66;;;4.84;38.50
75157;BME280;63736;50.076;8.198;2023-02-28T13:38:32;100568.78;;;4.81;38.63
75157;BME280;63736;50.076;8.198;2023-02-28T13:46:31;100563.81;;;4.94;39.44
75157;BME280;63736;50.076;8.198;2023-02-28T14:00:20;100572.56;;;4.75;38.82
75157;BME280;63736;50.076;8.198;2023-02-28T14:03:03;100570.09;;;4.71;38.95
75157;BME280;63736;50.076;8.198;2023-02-28T14:05:32;100567.41;;;4.72;38.76
75157;BME280;63736;50.076;8.198;2023-02-28T14:08:08;100551.47;;;4.74;38.87
75157;BME280;63736;50.076;8.198;2023-02-28T14:10:47;100558.34;;;4.78;38.75
75157;BME280;63736;50.076;8.198;2023-02-28T14:13:39;100559.34;;;4.75;38.83
75157;BME280;63736;50.076;8.198;2023-02-28T14:16:11;100545.19;;;4.76;39.71
75157;BME280;63736;50.076;8.198;2023-02-28T14:18:41;100540.63;;;4.80;39.06
75157;BME280;63736;50.076;8.198;2023-02-28T14:21:14;100552.06;;;4.80;39.53
75157;BME280;63736;50.076;8.198;2023-02-28T14:24:02;100546.09;;;4.75;38.99
75157;BME280;63736;50.076;8.198;2023-02-28T14:26:49;100549.88;;;4.70;39.85
75157;BME280;63736;50.076;8.198;2023-02-28T14:29:29;100547.22;;;4.70;39.63
75157;BME280;63736;50.076;8.198;2023-02-28T14:34:50;100547.16;;;4.71;39.89
75157;BME280;63736;50.076;8.198;2023-02-28T14:37:27;100547.03;;;4.74;39.66
75157;BME280;63736;50.076;8.198;2023-02-28T14:39:53;100545.19;;;4.76;39.77
75157;BME280;63736;50.076;8.198;2023-02-28T14:42:39;100543.53;;;4.74;39.41